createdAt,value
2022-11-16T00:01:38.157Z,100.00
2022-11-16T00:04:05.870Z,100.00
2022-11-16T00:06:33.367Z,100.00
2022-11-16T00:09:20.514Z,100.00
2022-11-16T00:11:49.556Z,100.00
2022-11-16T00:14:17.047Z,100.00
2022-11-16T00:16:45.844Z,100.00
2022-11-16T00:19:13.602Z,100.00
2022-11-16T00:21:41.582Z,100.00
2022-11-16T00:24:11.286Z,100.00
2022-11-16T00:26:38.749Z,100.00
2022-11-16T00:29:06.382Z,100.00
2022-11-16T00:31:33.793Z,100.00
2022-11-16T00:34:02.547Z,100.00
2022-11-16T00:36:30.001Z,100.00
2022-11-16T00:38:57.464Z,100.00
2022-11-16T00:41:25.281Z,100.00
2022-11-16T00:43:52.715Z,100.00
2022-11-16T00:46:20.163Z,100.00
2022-11-16T00:48:47.959Z,100.00
2022-11-16T00:51:16.724Z,100.00
2022-11-16T00:53:44.158Z,100.00
2022-11-16T00:56:11.606Z,100.00
2022-11-16T00:58:39.030Z,100.00
2022-11-16T01:01:07.673Z,100.00
2022-11-16T01:03:35.941Z,100.00
2022-11-16T01:06:03.821Z,100.00
2022-11-16T01:08:33.031Z,100.00
2022-11-16T01:11:20.778Z,100.00
2022-11-16T01:13:47.754Z,99.33
2022-11-16T01:16:16.254Z,96.27
2022-11-16T01:18:43.844Z,95.15
2022-11-16T01:21:11.473Z,94.11
2022-11-16T01:23:40.288Z,94.69
2022-11-16T01:26:07.854Z,95.65
2022-11-16T01:28:35.798Z,95.66
2022-11-16T01:31:03.648Z,96.25
2022-11-16T01:33:31.517Z,96.35
2022-11-16T01:35:58.965Z,96.53
2022-11-16T01:38:29.748Z,95.90
2022-11-16T01:40:58.845Z,95.37
2022-11-16T01:43:27.005Z,95.28
2022-11-16T01:45:54.442Z,95.47
2022-11-16T01:48:26.784Z,95.18
2022-11-16T01:50:57.257Z,95.18
2022-11-16T01:53:25.761Z,95.20
2022-11-16T01:55:53.778Z,96.26
2022-11-16T01:58:25.790Z,97.27
2022-11-16T02:00:53.294Z,98.75
2022-11-16T02:03:21.531Z,99.70
2022-11-16T02:06:00.462Z,99.59
2022-11-16T02:08:58.342Z,99.57
2022-11-16T02:11:50.591Z,99.89
2022-11-16T02:14:28.478Z,99.06
2022-11-16T02:17:05.938Z,98.93
2022-11-16T02:20:01.234Z,98.71
2022-11-16T02:22:45.811Z,98.75
2022-11-16T02:25:18.731Z,99.08
2022-11-16T02:28:01.013Z,99.56
2022-11-16T02:30:29.905Z,99.61
2022-11-16T02:33:02.329Z,100.00
2022-11-16T02:35:34.854Z,100.00
2022-11-16T02:38:06.035Z,100.00
2022-11-16T02:40:36.431Z,100.00
2022-11-16T02:43:09.535Z,100.00
2022-11-16T02:45:41.122Z,100.00
2022-11-16T02:48:13.048Z,100.00
2022-11-16T02:50:40.741Z,100.00
2022-11-16T02:53:08.186Z,100.00
2022-11-16T02:55:37.178Z,100.00
2022-11-16T02:58:07.914Z,100.00
2022-11-16T03:00:43.461Z,100.00
2022-11-16T03:03:21.775Z,100.00
2022-11-16T03:05:53.330Z,100.00
2022-11-16T03:08:26.178Z,100.00
2022-11-16T03:11:14.511Z,100.00
2022-11-16T03:13:42.899Z,100.00
2022-11-16T03:16:18.462Z,100.00
2022-11-16T03:18:48.625Z,100.00
2022-11-16T03:21:23.125Z,100.00
2022-11-16T03:23:51.623Z,100.00
2022-11-16T03:26:23.938Z,100.00
2022-11-16T03:28:56.237Z,100.00
2022-11-16T03:31:30.099Z,100.00
2022-11-16T03:34:01.545Z,100.00
2022-11-16T03:36:33.442Z,100.00
2022-11-16T03:39:05.146Z,100.00
2022-11-16T03:41:33.978Z,100.00
2022-11-16T03:44:02.781Z,100.00
2022-11-16T03:46:31.625Z,100.00
2022-11-16T03:49:00.674Z,100.00
2022-11-16T03:51:28.948Z,100.00
2022-11-16T03:53:56.577Z,100.00
2022-11-16T03:56:23.997Z,100.00
2022-11-16T03:58:51.477Z,100.00
2022-11-16T04:01:18.927Z,100.00
2022-11-16T04:03:47.772Z,99.85
2022-11-16T04:06:32.693Z,99.28
2022-11-16T04:09:23.104Z,99.37
2022-11-16T04:12:08.642Z,99.15
2022-11-16T04:14:53.957Z,98.80
2022-11-16T04:17:42.578Z,98.86
2022-11-16T04:20:31.086Z,98.77
2022-11-16T04:23:20.325Z,98.98
2022-11-16T04:25:49.345Z,98.55
2022-11-16T04:28:17.489Z,98.51
2022-11-16T04:31:06.320Z,98.53
2022-11-16T04:33:53.581Z,98.92
2022-11-16T04:36:39.988Z,99.64
2022-11-16T04:39:07.462Z,98.81
2022-11-16T04:41:52.968Z,97.97
2022-11-16T04:44:22.085Z,97.00
2022-11-16T04:47:08.244Z,96.50
2022-11-16T04:49:35.842Z,96.34
2022-11-16T04:52:04.872Z,96.48
2022-11-16T04:54:32.299Z,96.47
2022-11-16T04:56:59.810Z,96.57
2022-11-16T04:59:27.309Z,96.04
2022-11-16T05:02:10.021Z,95.02
2022-11-16T05:04:37.875Z,94.13
2022-11-16T05:07:10.681Z,92.90
2022-11-16T05:09:41.319Z,92.42
2022-11-16T05:12:09.242Z,92.89
2022-11-16T05:14:36.802Z,93.25
2022-11-16T05:17:04.772Z,93.66
2022-11-16T05:19:49.803Z,93.80
2022-11-16T05:22:18.645Z,93.98
2022-11-16T05:24:46.141Z,93.75
2022-11-16T05:27:15.757Z,94.32
2022-11-16T05:29:44.515Z,94.66
2022-11-16T05:32:13.725Z,95.20
2022-11-16T05:34:41.371Z,95.68
2022-11-16T05:37:09.230Z,96.03
2022-11-16T05:39:37.997Z,96.71
2022-11-16T05:42:06.091Z,97.01
2022-11-16T05:44:34.108Z,97.52
2022-11-16T05:47:01.851Z,97.78
2022-11-16T05:49:29.323Z,98.15
2022-11-16T05:51:56.770Z,98.00
2022-11-16T05:54:26.075Z,98.06
2022-11-16T05:56:55.754Z,97.86
2022-11-16T05:59:24.634Z,98.42
2022-11-16T06:01:52.513Z,98.11
2022-11-16T06:04:24.478Z,96.87
2022-11-16T06:06:52.698Z,95.47
2022-11-16T06:09:20.234Z,94.48
2022-11-16T06:11:47.649Z,94.54
2022-11-16T06:14:16.447Z,94.70
2022-11-16T06:16:43.943Z,94.98
2022-11-16T06:19:11.415Z,95.29
2022-11-16T06:21:38.867Z,95.54
2022-11-16T06:24:08.873Z,96.23
2022-11-16T06:26:36.777Z,96.62
2022-11-16T06:29:05.007Z,96.98
2022-11-16T06:31:33.881Z,97.40
2022-11-16T06:34:01.327Z,97.82
2022-11-16T06:36:29.057Z,98.29
2022-11-16T06:38:56.474Z,98.50
2022-11-16T06:41:23.940Z,98.31
2022-11-16T06:43:51.365Z,98.78
2022-11-16T06:46:18.835Z,99.03
2022-11-16T06:48:47.564Z,98.87
2022-11-16T06:51:15.036Z,98.90
2022-11-16T06:53:42.474Z,98.62
2022-11-16T06:56:13.278Z,98.60
2022-11-16T06:58:42.726Z,98.95
2022-11-16T07:01:12.306Z,98.67
2022-11-16T07:03:40.232Z,98.87
2022-11-16T07:06:10.819Z,98.74
2022-11-16T07:08:38.332Z,98.59
2022-11-16T07:11:07.294Z,98.23
2022-11-16T07:13:35.578Z,98.34
2022-11-16T07:16:04.182Z,98.30
2022-11-16T07:18:34.113Z,98.60
2022-11-16T07:21:06.750Z,98.70
2022-11-16T07:23:36.298Z,98.73
2022-11-16T07:26:05.663Z,98.87
2022-11-16T07:28:33.990Z,98.85
2022-11-16T07:31:02.549Z,98.57
2022-11-16T07:33:30.074Z,98.44
2022-11-16T07:36:02.128Z,98.73
2022-11-16T07:38:30.126Z,98.63
2022-11-16T07:41:02.137Z,98.56
2022-11-16T07:43:31.536Z,98.65
2022-11-16T07:46:30.446Z,98.42
2022-11-16T07:48:50.609Z,98.74
2022-11-16T07:51:19.334Z,99.16
2022-11-16T07:53:47.241Z,99.02
2022-11-16T07:56:16.006Z,99.07
2022-11-16T07:58:43.625Z,98.79
2022-11-16T08:01:13.068Z,98.89
2022-11-16T08:03:41.531Z,99.14
2022-11-16T08:06:13.862Z,99.22
2022-11-16T08:08:41.334Z,99.32
2022-11-16T08:11:10.418Z,98.95
2022-11-16T08:13:41.198Z,99.01
2022-11-16T08:16:11.241Z,99.09
2022-11-16T08:18:39.027Z,98.94
2022-11-16T08:21:08.198Z,98.89
2022-11-16T08:23:36.068Z,98.73
2022-11-16T08:26:05.690Z,98.63
2022-11-16T08:28:34.226Z,98.38
2022-11-16T08:31:09.169Z,98.36
2022-11-16T08:33:36.584Z,98.42
2022-11-16T08:36:09.477Z,97.88
2022-11-16T08:38:40.466Z,97.83
2022-11-16T08:41:08.154Z,98.01
2022-11-16T08:43:35.799Z,98.45
2022-11-16T08:46:04.582Z,98.70
2022-11-16T08:48:32.315Z,98.27
2022-11-16T08:51:17.064Z,98.13
2022-11-16T08:53:47.791Z,98.14
2022-11-16T08:56:15.701Z,97.73
2022-11-16T08:58:44.201Z,97.40
2022-11-16T09:01:15.056Z,96.99
2022-11-16T09:03:42.609Z,96.87
2022-11-16T09:06:11.250Z,96.37
2022-11-16T09:08:40.211Z,96.02
2022-11-16T09:11:08.923Z,96.33
2022-11-16T09:13:36.407Z,96.03
2022-11-16T09:16:04.977Z,96.17
2022-11-16T09:18:34.738Z,95.60
2022-11-16T09:21:02.707Z,95.98
2022-11-16T09:23:30.141Z,96.15
2022-11-16T09:26:02.218Z,96.32
2022-11-16T09:28:29.787Z,96.89
2022-11-16T09:31:01.793Z,95.69
2022-11-16T09:33:30.822Z,95.84
2022-11-16T09:36:06.779Z,96.34
2022-11-16T09:38:47.550Z,96.30
2022-11-16T09:41:38.962Z,96.94
2022-11-16T09:44:14.643Z,96.73
2022-11-16T09:46:46.965Z,95.99
2022-11-16T09:49:18.569Z,95.72
2022-11-16T09:51:51.043Z,95.95
2022-11-16T09:54:23.954Z,93.74
2022-11-16T09:56:54.948Z,94.15
2022-11-16T09:59:25.600Z,93.76
2022-11-16T10:01:56.980Z,94.20
2022-11-16T10:04:36.746Z,93.25
2022-11-16T10:07:12.028Z,93.55
2022-11-16T10:09:39.619Z,92.71
2022-11-16T10:12:15.908Z,93.43
2022-11-16T10:15:01.544Z,91.03
2022-11-16T10:17:39.016Z,91.17
2022-11-16T10:20:23.053Z,90.32
2022-11-16T10:23:02.020Z,92.05
2022-11-16T10:25:39.044Z,91.50
2022-11-16T10:28:30.210Z,91.36
2022-11-16T10:31:03.896Z,90.20
2022-11-16T10:33:36.139Z,91.09
2022-11-16T10:36:12.710Z,89.17
2022-11-16T10:38:42.954Z,89.31
2022-11-16T10:41:19.610Z,89.52
2022-11-16T10:43:49.181Z,89.37
2022-11-16T10:46:22.943Z,89.42
2022-11-16T10:49:02.886Z,90.56
2022-11-16T10:51:30.328Z,88.90
2022-11-16T10:53:59.141Z,88.98
2022-11-16T10:56:29.975Z,89.12
2022-11-16T10:58:59.960Z,89.01
2022-11-16T11:01:33.514Z,89.18
2022-11-16T11:04:19.567Z,89.24
2022-11-16T11:06:49.083Z,88.70
2022-11-16T11:09:25.041Z,88.97
2022-11-16T11:12:23.143Z,89.87
2022-11-16T11:15:02.984Z,89.97
2022-11-16T11:17:32.485Z,90.35
2022-11-16T11:20:01.908Z,89.84
2022-11-16T11:22:29.439Z,89.14
2022-11-16T11:24:58.645Z,89.94
2022-11-16T11:27:31.762Z,90.26
2022-11-16T11:30:00.024Z,91.79
2022-11-16T11:32:33.744Z,91.34
2022-11-16T11:35:02.865Z,90.02
2022-11-16T11:37:34.055Z,90.06
2022-11-16T11:40:19.393Z,89.89
2022-11-16T11:42:54.878Z,90.80
2022-11-16T11:45:26.322Z,90.89
2022-11-16T11:48:00.356Z,91.23
2022-11-16T11:50:39.701Z,92.13
2022-11-16T11:53:08.868Z,94.50
2022-11-16T11:55:37.689Z,94.21
2022-11-16T11:58:07.039Z,94.55
2022-11-16T12:00:45.202Z,95.20
2022-11-16T12:03:43.110Z,95.15
2022-11-16T12:06:16.926Z,95.18
2022-11-16T12:09:18.485Z,95.34
2022-11-16T12:12:02.423Z,94.87
2022-11-16T12:15:01.797Z,94.53
2022-11-16T12:17:41.658Z,93.39
2022-11-16T12:20:20.859Z,93.49
2022-11-16T12:23:06.644Z,93.22
2022-11-16T12:25:44.135Z,92.74
2022-11-16T12:28:25.268Z,93.02
2022-11-16T12:31:08.593Z,92.80
2022-11-16T12:33:45.062Z,91.77
2022-11-16T12:36:25.489Z,91.61
2022-11-16T12:39:07.187Z,90.44
2022-11-16T12:41:54.405Z,91.24
2022-11-16T12:44:33.724Z,91.75
2022-11-16T12:47:09.964Z,91.78
2022-11-16T12:49:52.256Z,91.80
2022-11-16T12:52:37.351Z,91.98
2022-11-16T12:55:28.220Z,93.88
2022-11-16T12:58:07.342Z,95.30
2022-11-16T13:00:51.528Z,95.99
2022-11-16T13:03:24.298Z,96.91
2022-11-16T13:05:58.716Z,96.19
2022-11-16T13:08:36.800Z,96.33
2022-11-16T13:11:12.776Z,96.38
2022-11-16T13:13:41.968Z,96.67
2022-11-16T13:16:15.430Z,96.86
2022-11-16T13:18:44.006Z,96.84
2022-11-16T13:21:19.716Z,97.05
2022-11-16T13:23:56.577Z,97.08
2022-11-16T13:26:31.295Z,97.12
2022-11-16T13:29:04.188Z,97.44
2022-11-16T13:31:38.662Z,97.85
2022-11-16T13:34:08.593Z,98.10
2022-11-16T13:36:43.435Z,98.11
2022-11-16T13:39:18.647Z,97.85
2022-11-16T13:41:50.752Z,98.18
2022-11-16T13:44:28.932Z,98.44
2022-11-16T13:47:04.139Z,98.36
2022-11-16T13:49:34.852Z,98.45
2022-11-16T13:52:21.950Z,97.27
2022-11-16T13:54:52.575Z,96.71
2022-11-16T13:57:26.734Z,96.82
2022-11-16T14:00:09.466Z,97.26
2022-11-16T14:02:40.158Z,97.76
2022-11-16T14:05:15.909Z,97.35
2022-11-16T14:07:47.128Z,97.23
2022-11-16T14:10:58.716Z,96.94
2022-11-16T14:13:39.683Z,96.71
2022-11-16T14:16:46.936Z,96.46
2022-11-16T14:19:54.880Z,96.54
2022-11-16T14:22:54.932Z,96.65
2022-11-16T14:25:33.143Z,96.82
2022-11-16T14:28:14.175Z,96.68
2022-11-16T14:30:53.755Z,96.96
2022-11-16T14:33:31.505Z,96.12
2022-11-16T14:36:03.239Z,93.40
2022-11-16T14:38:34.018Z,90.70
2022-11-16T14:41:03.708Z,88.59
2022-11-16T14:43:36.573Z,85.89
2022-11-16T14:46:08.521Z,84.30
2022-11-16T14:48:44.233Z,84.43
2022-11-16T14:51:16.594Z,85.74
2022-11-16T14:53:49.602Z,91.11
2022-11-16T14:56:19.570Z,91.37
2022-11-16T14:58:52.893Z,92.86
2022-11-16T15:01:23.649Z,93.30
2022-11-16T15:03:55.828Z,94.32
2022-11-16T15:06:26.826Z,94.50
2022-11-16T15:08:59.090Z,95.14
2022-11-16T15:11:49.537Z,95.64
2022-11-16T15:14:23.370Z,95.86
2022-11-16T15:16:52.617Z,96.64
2022-11-16T15:19:21.012Z,97.40
2022-11-16T15:21:54.700Z,97.20
2022-11-16T15:24:30.559Z,98.08
2022-11-16T15:27:10.364Z,98.21
2022-11-16T15:29:38.011Z,98.65
2022-11-16T15:32:07.131Z,99.11
2022-11-16T15:34:34.753Z,99.07
2022-11-16T15:37:03.513Z,99.64
2022-11-16T15:39:35.238Z,99.44
2022-11-16T15:42:04.171Z,99.82
2022-11-16T15:44:32.873Z,99.74
2022-11-16T15:47:00.577Z,100.00
2022-11-16T15:49:30.624Z,100.00
2022-11-16T15:51:59.280Z,100.00
2022-11-16T15:54:29.753Z,100.00
2022-11-16T15:57:06.695Z,100.00
2022-11-16T15:59:36.690Z,100.00
2022-11-16T16:02:05.123Z,100.00
2022-11-16T16:04:32.636Z,100.00
2022-11-16T16:07:01.317Z,100.00
2022-11-16T16:09:31.999Z,100.00
2022-11-16T16:12:17.896Z,100.00
2022-11-16T16:14:45.893Z,100.00
2022-11-16T16:17:23.295Z,100.00
2022-11-16T16:19:56.142Z,100.00
2022-11-16T16:22:27.106Z,100.00
2022-11-16T16:24:56.172Z,100.00
2022-11-16T16:27:25.424Z,100.00
2022-11-16T16:29:54.534Z,100.00
2022-11-16T16:32:26.861Z,100.00
2022-11-16T16:34:54.811Z,100.00
2022-11-16T16:37:23.095Z,100.00
2022-11-16T16:39:50.520Z,100.00
2022-11-16T16:42:19.717Z,100.00
2022-11-16T16:44:48.388Z,100.00
2022-11-16T16:47:17.117Z,100.00
2022-11-16T16:49:44.625Z,100.00
2022-11-16T16:52:13.426Z,100.00
2022-11-16T16:54:41.282Z,100.00
2022-11-16T16:57:13.489Z,100.00
2022-11-16T16:59:43.821Z,100.00
2022-11-16T17:02:12.148Z,100.00
2022-11-16T17:04:39.636Z,100.00
2022-11-16T17:07:07.206Z,100.00
2022-11-16T17:09:34.655Z,100.00
2022-11-16T17:12:02.070Z,100.00
2022-11-16T17:14:29.486Z,100.00
2022-11-16T17:16:59.129Z,100.00
2022-11-16T17:19:26.610Z,100.00
2022-11-16T17:21:54.098Z,100.00
2022-11-16T17:24:21.514Z,100.00
2022-11-16T17:26:49.022Z,100.00
2022-11-16T17:29:16.509Z,100.00
2022-11-16T17:31:44.801Z,100.00
2022-11-16T17:34:14.378Z,100.00
2022-11-16T17:36:42.008Z,100.00
2022-11-16T17:39:09.639Z,100.00
2022-11-16T17:41:37.475Z,100.00
2022-11-16T17:44:06.032Z,100.00
2022-11-16T17:46:33.710Z,100.00
2022-11-16T17:49:01.613Z,100.00
2022-11-16T17:51:30.458Z,100.00
2022-11-16T17:53:58.035Z,100.00
2022-11-16T17:56:27.489Z,100.00
2022-11-16T17:58:55.849Z,100.00
2022-11-16T18:01:23.865Z,100.00
2022-11-16T18:03:51.400Z,100.00
2022-11-16T18:06:21.138Z,100.00
2022-11-16T18:08:49.922Z,100.00
2022-11-16T18:11:19.002Z,100.00
2022-11-16T18:13:47.449Z,100.00
2022-11-16T18:16:16.935Z,100.00
2022-11-16T18:18:45.315Z,100.00
2022-11-16T18:21:20.124Z,100.00
2022-11-16T18:23:49.884Z,100.00
2022-11-16T18:26:20.917Z,100.00
2022-11-16T18:28:48.876Z,100.00
2022-11-16T18:31:18.601Z,100.00
2022-11-16T18:33:46.461Z,100.00
2022-11-16T18:36:17.123Z,100.00
2022-11-16T18:38:44.652Z,100.00
2022-11-16T18:41:19.533Z,100.00
2022-11-16T18:43:51.953Z,100.00
2022-11-16T18:46:19.960Z,100.00
2022-11-16T18:48:47.583Z,100.00
2022-11-16T18:51:16.231Z,100.00
2022-11-16T18:53:44.219Z,100.00
2022-11-16T18:56:12.255Z,100.00
2022-11-16T18:58:50.730Z,100.00
2022-11-16T19:01:20.019Z,100.00
2022-11-16T19:03:47.571Z,100.00
2022-11-16T19:06:17.407Z,100.00
2022-11-16T19:08:51.760Z,100.00
2022-11-16T19:11:21.691Z,100.00
2022-11-16T19:13:54.212Z,100.00
2022-11-16T19:16:21.991Z,100.00
2022-11-16T19:18:49.466Z,100.00
2022-11-16T19:21:19.281Z,100.00
2022-11-16T19:23:49.259Z,100.00
2022-11-16T19:26:18.479Z,100.00
2022-11-16T19:28:47.826Z,100.00
2022-11-16T19:31:18.524Z,100.00
2022-11-16T19:33:46.511Z,100.00
2022-11-16T19:36:15.650Z,100.00
2022-11-16T19:38:43.889Z,100.00
2022-11-16T19:41:12.882Z,100.00
2022-11-16T19:43:40.635Z,100.00
2022-11-16T19:46:09.760Z,100.00
2022-11-16T19:48:39.235Z,100.00
2022-11-16T19:51:08.366Z,100.00
2022-11-16T19:53:36.669Z,100.00
2022-11-16T19:56:05.201Z,100.00
2022-11-16T19:58:32.893Z,100.00
2022-11-16T20:01:04.205Z,100.00
2022-11-16T20:03:32.640Z,100.00
2022-11-16T20:06:10.365Z,100.00
2022-11-16T20:08:38.437Z,100.00
2022-11-16T20:11:13.791Z,100.00
2022-11-16T20:13:41.932Z,100.00
2022-11-16T20:16:10.945Z,100.00
2022-11-16T20:18:38.417Z,100.00
2022-11-16T20:21:08.678Z,100.00
2022-11-16T20:23:37.536Z,100.00
2022-11-16T20:26:06.345Z,100.00
2022-11-16T20:28:37.351Z,100.00
2022-11-16T20:31:08.135Z,100.00
2022-11-16T20:33:37.139Z,100.00
2022-11-16T20:36:07.377Z,100.00
2022-11-16T20:38:37.567Z,100.00
2022-11-16T20:41:09.542Z,100.00
2022-11-16T20:43:39.119Z,100.00
2022-11-16T20:46:07.296Z,100.00
2022-11-16T20:48:34.775Z,100.00
2022-11-16T20:51:02.656Z,100.00
2022-11-16T20:53:30.203Z,100.00
2022-11-16T20:55:59.082Z,100.00
2022-11-16T20:58:26.552Z,100.00
2022-11-16T21:00:54.058Z,100.00
2022-11-16T21:03:21.720Z,100.00
2022-11-16T21:05:52.635Z,100.00
2022-11-16T21:08:20.182Z,100.00
2022-11-16T21:10:48.228Z,100.00
2022-11-16T21:13:36.954Z,100.00
2022-11-16T21:16:06.605Z,100.00
2022-11-16T21:18:34.563Z,100.00
2022-11-16T21:21:03.267Z,100.00
2022-11-16T21:23:32.414Z,100.00
2022-11-16T21:26:05.156Z,100.00
2022-11-16T21:28:34.572Z,100.00
2022-11-16T21:31:03.939Z,100.00
2022-11-16T21:33:31.582Z,100.00
2022-11-16T21:36:04.375Z,100.00
2022-11-16T21:38:32.780Z,100.00
2022-11-16T21:41:00.356Z,100.00
2022-11-16T21:43:27.793Z,100.00
2022-11-16T21:46:02.805Z,100.00
2022-11-16T21:48:32.218Z,100.00
2022-11-16T21:51:04.120Z,100.00
2022-11-16T21:53:31.871Z,100.00
2022-11-16T21:55:59.650Z,100.00
2022-11-16T21:58:27.302Z,100.00
2022-11-16T22:00:56.439Z,100.00
2022-11-16T22:03:24.077Z,100.00
2022-11-16T22:06:12.612Z,100.00
2022-11-16T22:08:40.553Z,100.00
2022-11-16T22:11:08.446Z,100.00
2022-11-16T22:13:36.537Z,100.00
2022-11-16T22:16:10.375Z,100.00
2022-11-16T22:18:38.611Z,100.00
2022-11-16T22:21:06.654Z,100.00
2022-11-16T22:23:34.976Z,100.00
2022-11-16T22:26:03.852Z,100.00
2022-11-16T22:28:31.439Z,100.00
2022-11-16T22:31:02.573Z,100.00
2022-11-16T22:33:31.972Z,100.00
2022-11-16T22:35:59.785Z,100.00
2022-11-16T22:38:27.925Z,100.00
2022-11-16T22:40:57.079Z,100.00
2022-11-16T22:43:26.117Z,100.00
2022-11-16T22:45:57.761Z,100.00
2022-11-16T22:48:31.613Z,100.00
2022-11-16T22:51:13.144Z,100.00
2022-11-16T22:53:40.612Z,100.00
2022-11-16T22:56:09.897Z,100.00
2022-11-16T22:58:38.363Z,100.00
2022-11-16T23:01:07.872Z,100.00
2022-11-16T23:03:37.396Z,100.00
2022-11-16T23:06:06.342Z,100.00
2022-11-16T23:08:34.146Z,100.00
2022-11-16T23:11:20.467Z,100.00
2022-11-16T23:14:06.106Z,100.00
2022-11-16T23:16:33.812Z,100.00
2022-11-16T23:19:02.764Z,100.00
2022-11-16T23:21:47.903Z,100.00
2022-11-16T23:24:33.570Z,100.00
2022-11-16T23:27:17.266Z,100.00
2022-11-16T23:29:44.758Z,100.00
2022-11-16T23:32:12.342Z,100.00
2022-11-16T23:34:41.106Z,100.00
2022-11-16T23:37:08.991Z,100.00
2022-11-16T23:39:36.409Z,100.00
2022-11-16T23:42:21.620Z,100.00
2022-11-16T23:44:49.050Z,100.00
2022-11-16T23:47:16.497Z,100.00
2022-11-16T23:49:45.334Z,100.00
2022-11-16T23:52:13.187Z,100.00
2022-11-16T23:54:40.702Z,100.00
2022-11-16T23:57:08.219Z,100.00
2022-11-16T23:59:35.659Z,100.00
